createdAt,value
2022-08-03T00:01:49.111Z,63.08
2022-08-03T00:04:15.648Z,63.59
2022-08-03T00:06:42.484Z,63.58
2022-08-03T00:09:09.327Z,63.78
2022-08-03T00:11:37.642Z,63.93
2022-08-03T00:14:05.996Z,64.03
2022-08-03T00:16:32.605Z,63.91
2022-08-03T00:19:00.749Z,64.42
2022-08-03T00:21:28.352Z,65.23
2022-08-03T00:23:54.883Z,64.81
2022-08-03T00:26:21.933Z,65.45
2022-08-03T00:28:49.474Z,65.58
2022-08-03T00:31:16.236Z,64.96
2022-08-03T00:33:58.959Z,65.04
2022-08-03T00:36:27.730Z,65.28
2022-08-03T00:38:54.875Z,65.22
2022-08-03T00:41:21.412Z,65.52
2022-08-03T00:43:48.237Z,65.54
2022-08-03T00:46:20.566Z,65.97
2022-08-03T00:48:51.081Z,66.08
2022-08-03T00:51:19.834Z,66.06
2022-08-03T00:53:46.472Z,66.42
2022-08-03T00:56:15.206Z,66.82
2022-08-03T00:58:44.400Z,66.39
2022-08-03T01:01:12.310Z,66.95
2022-08-03T01:03:39.158Z,66.74
2022-08-03T01:06:33.870Z,66.01
2022-08-03T01:09:09.105Z,66.64
2022-08-03T01:12:00.299Z,66.95
2022-08-03T01:14:34.285Z,66.94
2022-08-03T01:17:29.157Z,66.50
2022-08-03T01:20:14.915Z,66.53
2022-08-03T01:23:10.639Z,66.99
2022-08-03T01:26:10.519Z,67.20
2022-08-03T01:29:16.529Z,67.25
2022-08-03T01:32:53.494Z,68.00
2022-08-03T01:34:43.579Z,68.15
2022-08-03T01:37:12.458Z,68.57
2022-08-03T01:39:41.435Z,68.44
2022-08-03T01:42:11.481Z,68.24
2022-08-03T01:44:41.490Z,68.65
2022-08-03T01:47:10.655Z,68.33
2022-08-03T01:49:40.647Z,68.66
2022-08-03T01:52:08.860Z,68.65
2022-08-03T01:54:44.137Z,69.00
2022-08-03T01:57:11.644Z,69.14
2022-08-03T01:59:40.040Z,69.30
2022-08-03T02:02:28.351Z,69.04
2022-08-03T02:04:57.553Z,69.12
2022-08-03T02:07:25.819Z,69.60
2022-08-03T02:09:54.260Z,69.46
2022-08-03T02:12:23.923Z,69.62
2022-08-03T02:14:51.704Z,69.78
2022-08-03T02:17:39.070Z,69.88
2022-08-03T02:20:08.407Z,69.69
2022-08-03T02:22:35.922Z,69.85
2022-08-03T02:25:02.549Z,70.11
2022-08-03T02:27:31.309Z,70.18
2022-08-03T02:30:10.001Z,69.68
2022-08-03T02:32:40.170Z,70.26
2022-08-03T02:35:12.570Z,70.28
2022-08-03T02:37:49.820Z,70.44
2022-08-03T02:40:20.240Z,70.50
2022-08-03T02:42:49.322Z,70.95
2022-08-03T02:45:18.249Z,70.65
2022-08-03T02:47:53.178Z,70.59
2022-08-03T02:50:21.881Z,70.57
2022-08-03T02:52:49.817Z,70.66
2022-08-03T02:55:19.568Z,70.96
2022-08-03T02:57:47.357Z,70.94
2022-08-03T03:00:27.695Z,71.18
2022-08-03T03:02:58.891Z,71.16
2022-08-03T03:05:55.966Z,70.73
2022-08-03T03:08:17.623Z,71.15
2022-08-03T03:10:46.210Z,71.17
2022-08-03T03:13:15.080Z,71.20
2022-08-03T03:15:43.438Z,71.38
2022-08-03T03:18:11.175Z,71.80
2022-08-03T03:20:40.778Z,71.50
2022-08-03T03:23:08.924Z,71.56
2022-08-03T03:25:36.125Z,72.04
2022-08-03T03:28:03.822Z,71.90
2022-08-03T03:30:34.126Z,71.56
2022-08-03T03:33:00.818Z,71.91
2022-08-03T03:35:27.930Z,71.87
2022-08-03T03:37:55.136Z,72.26
2022-08-03T03:40:22.531Z,71.89
2022-08-03T03:42:50.322Z,72.06
2022-08-03T03:45:17.764Z,71.96
2022-08-03T03:47:44.384Z,71.96
2022-08-03T03:50:11.084Z,72.25
2022-08-03T03:52:37.684Z,71.79
2022-08-03T03:55:04.477Z,72.69
2022-08-03T03:57:31.001Z,71.96
2022-08-03T03:59:57.740Z,72.89
2022-08-03T04:02:24.481Z,72.77
2022-08-03T04:05:09.969Z,72.63
2022-08-03T04:08:14.564Z,72.52
2022-08-03T04:10:58.531Z,72.37
2022-08-03T04:13:30.933Z,72.84
2022-08-03T04:15:58.862Z,72.56
2022-08-03T04:18:27.970Z,72.87
2022-08-03T04:21:01.462Z,72.88
2022-08-03T04:23:30.740Z,73.35
2022-08-03T04:25:59.251Z,73.28
2022-08-03T04:28:30.854Z,73.08
2022-08-03T04:31:01.136Z,73.40
2022-08-03T04:33:32.471Z,73.29
2022-08-03T04:36:02.959Z,71.55
2022-08-03T04:38:32.698Z,73.23
2022-08-03T04:41:00.599Z,73.40
2022-08-03T04:43:28.128Z,73.52
2022-08-03T04:45:55.713Z,73.68
2022-08-03T04:48:22.548Z,73.63
2022-08-03T04:50:49.143Z,73.66
2022-08-03T04:53:16.414Z,73.84
2022-08-03T04:55:42.999Z,73.78
2022-08-03T04:58:09.600Z,73.62
2022-08-03T05:00:36.091Z,74.07
2022-08-03T05:03:02.744Z,73.50
2022-08-03T05:05:48.962Z,73.41
2022-08-03T05:08:16.089Z,73.78
2022-08-03T05:10:47.363Z,73.95
2022-08-03T05:13:14.515Z,73.46
2022-08-03T05:15:43.131Z,73.54
2022-08-03T05:18:13.938Z,73.70
2022-08-03T05:20:41.071Z,73.80
2022-08-03T05:23:07.647Z,74.12
2022-08-03T05:25:34.211Z,73.66
2022-08-03T05:28:00.753Z,73.44
2022-08-03T05:30:33.967Z,74.27
2022-08-03T05:33:02.389Z,73.87
2022-08-03T05:36:00.849Z,74.06
2022-08-03T05:38:23.993Z,73.95
2022-08-03T05:40:57.602Z,73.44
2022-08-03T05:43:43.171Z,73.56
2022-08-03T05:46:12.425Z,74.27
2022-08-03T05:48:39.971Z,73.65
2022-08-03T05:51:11.023Z,74.16
2022-08-03T05:53:42.592Z,74.07
2022-08-03T05:56:14.018Z,74.19
2022-08-03T05:58:44.061Z,74.05
2022-08-03T06:01:10.614Z,74.17
2022-08-03T06:03:37.177Z,74.52
2022-08-03T06:06:03.740Z,74.35
2022-08-03T06:08:30.285Z,74.17
2022-08-03T06:10:56.799Z,73.82
2022-08-03T06:13:23.313Z,74.22
2022-08-03T06:15:49.833Z,73.90
2022-08-03T06:18:16.388Z,73.40
2022-08-03T06:20:42.959Z,73.62
2022-08-03T06:23:09.507Z,73.04
2022-08-03T06:25:43.185Z,72.93
2022-08-03T06:28:15.085Z,73.33
2022-08-03T06:30:46.741Z,73.10
2022-08-03T06:33:16.727Z,72.76
2022-08-03T06:35:43.235Z,72.61
2022-08-03T06:38:12.894Z,72.64
2022-08-03T06:40:42.097Z,73.04
2022-08-03T06:43:12.592Z,73.27
2022-08-03T06:45:39.421Z,72.61
2022-08-03T06:48:07.359Z,72.78
2022-08-03T06:50:35.442Z,72.26
2022-08-03T06:53:02.299Z,72.11
2022-08-03T06:55:28.881Z,71.97
2022-08-03T06:57:55.888Z,71.59
2022-08-03T07:00:28.073Z,71.93
2022-08-03T07:02:58.060Z,72.51
2022-08-03T07:05:25.209Z,71.91
2022-08-03T07:07:55.656Z,72.08
2022-08-03T07:10:22.169Z,71.87
2022-08-03T07:12:56.006Z,71.94
2022-08-03T07:15:55.633Z,70.82
2022-08-03T07:18:09.995Z,71.80
2022-08-03T07:20:36.667Z,71.14
2022-08-03T07:23:03.221Z,70.99
2022-08-03T07:25:29.716Z,71.17
2022-08-03T07:27:56.347Z,71.78
2022-08-03T07:30:23.479Z,71.08
2022-08-03T07:32:50.618Z,70.68
2022-08-03T07:35:24.755Z,71.14
2022-08-03T07:37:54.555Z,69.97
2022-08-03T07:40:22.803Z,69.87
2022-08-03T07:42:52.171Z,70.29
2022-08-03T07:45:23.207Z,70.54
2022-08-03T07:47:53.494Z,70.61
2022-08-03T07:50:21.117Z,69.58
2022-08-03T07:52:47.876Z,69.63
2022-08-03T07:55:15.107Z,69.83
2022-08-03T07:57:41.658Z,69.32
2022-08-03T08:00:15.899Z,69.49
2022-08-03T08:02:43.257Z,68.77
2022-08-03T08:05:10.925Z,68.84
2022-08-03T08:07:38.554Z,68.39
2022-08-03T08:10:06.896Z,68.11
2022-08-03T08:12:33.705Z,67.73
2022-08-03T08:15:00.229Z,66.80
2022-08-03T08:17:27.018Z,67.01
2022-08-03T08:19:53.807Z,66.30
2022-08-03T08:22:29.694Z,66.73
2022-08-03T08:24:56.843Z,67.37
2022-08-03T08:27:23.603Z,66.69
2022-08-03T08:29:54.266Z,66.24
2022-08-03T08:32:23.228Z,66.42
2022-08-03T08:34:49.884Z,65.23
2022-08-03T08:37:16.427Z,64.75
2022-08-03T08:39:42.937Z,64.58
2022-08-03T08:42:10.248Z,64.50
2022-08-03T08:44:36.885Z,63.72
2022-08-03T08:47:04.087Z,63.19
2022-08-03T08:49:32.931Z,63.44
2022-08-03T08:52:01.676Z,62.51
2022-08-03T08:54:32.396Z,62.46
2022-08-03T08:57:02.723Z,61.57
2022-08-03T08:59:48.346Z,61.38
2022-08-03T09:02:16.442Z,60.70
2022-08-03T09:04:45.493Z,60.58
2022-08-03T09:07:20.165Z,60.03
2022-08-03T09:10:07.598Z,60.05
2022-08-03T09:12:44.895Z,60.72
2022-08-03T09:15:24.536Z,60.09
2022-08-03T09:17:56.206Z,60.60
2022-08-03T09:20:29.514Z,60.39
2022-08-03T09:22:56.016Z,59.99
2022-08-03T09:25:29.131Z,59.89
2022-08-03T09:28:05.284Z,59.91
2022-08-03T09:30:34.352Z,59.26
2022-08-03T09:33:08.424Z,59.26
2022-08-03T09:35:54.446Z,59.06
2022-08-03T09:38:25.924Z,59.67
2022-08-03T09:40:58.851Z,58.22
2022-08-03T09:43:27.484Z,57.76
2022-08-03T09:46:03.915Z,58.45
2022-08-03T09:48:31.598Z,58.00
2022-08-03T09:51:12.865Z,56.86
2022-08-03T09:53:58.549Z,56.55
2022-08-03T09:56:38.540Z,57.08
2022-08-03T09:59:05.152Z,56.64
2022-08-03T10:01:35.930Z,55.24
2022-08-03T10:04:04.985Z,54.90
2022-08-03T10:06:32.029Z,54.58
2022-08-03T10:09:10.892Z,55.11
2022-08-03T10:11:41.768Z,53.81
2022-08-03T10:14:10.936Z,54.51
2022-08-03T10:16:40.430Z,53.32
2022-08-03T10:19:08.333Z,53.25
2022-08-03T10:21:37.770Z,53.72
2022-08-03T10:24:06.622Z,51.87
2022-08-03T10:26:35.889Z,51.52
2022-08-03T10:29:12.894Z,52.12
2022-08-03T10:31:54.722Z,51.00
2022-08-03T10:34:26.976Z,51.70
2022-08-03T10:36:58.730Z,51.16
2022-08-03T10:39:28.773Z,48.43
2022-08-03T10:41:58.687Z,48.95
2022-08-03T10:44:32.560Z,48.52
2022-08-03T10:46:59.775Z,48.25
2022-08-03T10:49:34.973Z,48.99
2022-08-03T10:52:12.867Z,48.97
2022-08-03T10:55:07.567Z,49.06
2022-08-03T10:57:58.455Z,49.21
2022-08-03T11:00:27.835Z,46.59
2022-08-03T11:03:04.023Z,48.06
2022-08-03T11:05:33.406Z,47.92
2022-08-03T11:08:27.989Z,47.76
2022-08-03T11:11:00.196Z,46.28
2022-08-03T11:13:30.861Z,47.05
2022-08-03T11:16:02.244Z,46.25
2022-08-03T11:18:30.447Z,44.59
2022-08-03T11:20:59.746Z,45.07
2022-08-03T11:24:03.321Z,45.79
2022-08-03T11:26:32.894Z,44.77
2022-08-03T11:29:29.798Z,46.47
2022-08-03T11:31:56.522Z,44.88
2022-08-03T11:34:24.321Z,43.92
2022-08-03T11:37:20.883Z,45.10
2022-08-03T11:39:49.434Z,43.33
2022-08-03T11:42:21.973Z,44.11
2022-08-03T11:44:50.317Z,42.12
2022-08-03T11:47:17.926Z,42.72
2022-08-03T11:49:47.239Z,42.43
2022-08-03T11:52:14.301Z,42.65
2022-08-03T11:54:40.889Z,44.17
2022-08-03T11:57:07.482Z,42.71
2022-08-03T11:59:34.995Z,41.51
2022-08-03T12:02:08.041Z,42.31
2022-08-03T12:04:54.384Z,43.35
2022-08-03T12:08:02.264Z,41.83
2022-08-03T12:10:15.539Z,42.05
2022-08-03T12:12:46.429Z,40.85
2022-08-03T12:15:13.727Z,41.36
2022-08-03T12:17:41.407Z,42.71
2022-08-03T12:20:10.220Z,41.17
2022-08-03T12:22:38.914Z,41.11
2022-08-03T12:25:09.936Z,41.79
2022-08-03T12:27:36.947Z,41.28
2022-08-03T12:30:04.575Z,41.10
2022-08-03T12:32:31.373Z,40.73
2022-08-03T12:35:04.445Z,40.64
2022-08-03T12:37:31.715Z,40.24
2022-08-03T12:40:07.954Z,40.59
2022-08-03T12:42:39.533Z,39.41
2022-08-03T12:45:28.827Z,40.32
2022-08-03T12:47:57.956Z,40.07
2022-08-03T12:50:35.449Z,40.60
2022-08-03T12:53:04.751Z,39.51
2022-08-03T12:55:56.388Z,40.14
2022-08-03T12:58:43.424Z,40.20
2022-08-03T13:01:10.860Z,39.52
2022-08-03T13:03:50.260Z,39.62
2022-08-03T13:06:22.322Z,40.23
2022-08-03T13:08:49.988Z,39.42
2022-08-03T13:11:20.542Z,38.99
2022-08-03T13:13:47.120Z,39.04
2022-08-03T13:16:18.990Z,39.67
2022-08-03T13:18:48.957Z,38.92
2022-08-03T13:21:20.331Z,39.28
2022-08-03T13:23:47.169Z,39.11
2022-08-03T13:26:13.780Z,39.33
2022-08-03T13:28:40.305Z,39.30
2022-08-03T13:31:07.072Z,38.85
2022-08-03T13:33:33.785Z,39.29
2022-08-03T13:36:00.416Z,38.95
2022-08-03T13:38:27.382Z,38.94
2022-08-03T13:40:55.115Z,39.31
2022-08-03T13:43:22.464Z,39.97
2022-08-03T13:45:52.530Z,39.94
2022-08-03T13:48:36.782Z,38.90
2022-08-03T13:51:11.626Z,39.06
2022-08-03T13:53:50.732Z,40.25
2022-08-03T13:56:17.231Z,38.37
2022-08-03T13:58:43.803Z,38.57
2022-08-03T14:01:10.347Z,38.49
2022-08-03T14:03:37.043Z,39.17
2022-08-03T14:06:03.616Z,39.72
2022-08-03T14:08:30.148Z,39.16
2022-08-03T14:10:56.667Z,39.08
2022-08-03T14:13:23.190Z,38.83
2022-08-03T14:15:51.253Z,39.28
2022-08-03T14:18:28.305Z,39.52
2022-08-03T14:21:00.669Z,38.53
2022-08-03T14:23:32.304Z,38.71
2022-08-03T14:25:59.446Z,38.45
2022-08-03T14:28:26.001Z,39.04
2022-08-03T14:30:53.732Z,40.25
2022-08-03T14:33:23.127Z,39.70
2022-08-03T14:35:49.700Z,38.10
2022-08-03T14:38:16.681Z,36.96
2022-08-03T14:40:43.326Z,37.01
2022-08-03T14:43:10.059Z,39.21
2022-08-03T14:45:36.552Z,39.60
2022-08-03T14:50:30.563Z,39.62
2022-08-03T14:50:52.455Z,37.74
2022-08-03T14:53:19.754Z,38.06
2022-08-03T14:55:49.783Z,36.98
2022-08-03T14:58:19.678Z,37.55
2022-08-03T15:00:49.432Z,36.76
2022-08-03T15:03:20.267Z,37.35
2022-08-03T15:05:47.220Z,37.11
2022-08-03T15:08:13.858Z,37.26
2022-08-03T15:10:44.758Z,36.35
2022-08-03T15:13:13.058Z,36.36
2022-08-03T15:15:40.258Z,37.02
2022-08-03T15:18:06.828Z,35.99
2022-08-03T15:20:43.808Z,37.78
2022-08-03T15:23:12.380Z,35.88
2022-08-03T15:26:29.083Z,36.14
2022-08-03T15:28:25.465Z,34.79
2022-08-03T15:30:52.981Z,34.48
2022-08-03T15:33:19.826Z,35.37
2022-08-03T15:35:47.399Z,36.17
2022-08-03T15:38:13.930Z,34.28
2022-08-03T15:40:40.458Z,34.09
2022-08-03T15:43:07.309Z,34.43
2022-08-03T15:45:36.069Z,36.65
2022-08-03T15:48:04.614Z,34.17
2022-08-03T15:50:31.224Z,33.58
2022-08-03T15:52:57.782Z,34.51
2022-08-03T15:55:24.391Z,34.52
2022-08-03T15:59:03.617Z,35.03
2022-08-03T16:00:37.576Z,35.43
2022-08-03T16:03:04.424Z,36.31
2022-08-03T16:05:31.080Z,38.24
2022-08-03T16:08:03.554Z,34.88
2022-08-03T16:10:30.831Z,34.88
2022-08-03T16:12:58.884Z,34.74
2022-08-03T16:15:25.665Z,35.11
2022-08-03T16:17:52.276Z,34.99
2022-08-03T16:20:30.844Z,34.79
2022-08-03T16:23:10.899Z,36.20
2022-08-03T16:25:42.012Z,34.68
2022-08-03T16:28:13.719Z,35.67
2022-08-03T16:30:42.378Z,33.87
2022-08-03T16:33:09.668Z,34.98
2022-08-03T16:35:36.268Z,33.97
2022-08-03T16:38:09.271Z,33.50
2022-08-03T16:40:36.574Z,33.56
2022-08-03T16:43:18.274Z,34.83
2022-08-03T16:45:47.256Z,32.50
2022-08-03T16:48:15.064Z,33.30
2022-08-03T16:50:41.825Z,33.92
2022-08-03T16:53:09.818Z,32.71
2022-08-03T16:55:49.065Z,32.05
2022-08-03T16:58:34.665Z,34.14
2022-08-03T17:01:24.120Z,32.57
2022-08-03T17:04:02.700Z,33.56
2022-08-03T17:06:35.357Z,31.67
2022-08-03T17:09:11.681Z,34.20
2022-08-03T17:11:43.979Z,32.54
2022-08-03T17:14:14.717Z,31.76
2022-08-03T17:16:53.075Z,34.22
2022-08-03T17:19:24.836Z,32.64
2022-08-03T17:21:59.323Z,32.35
2022-08-03T17:24:32.321Z,31.66
2022-08-03T17:27:09.031Z,32.44
2022-08-03T17:29:51.633Z,32.54
2022-08-03T17:32:21.484Z,32.88
2022-08-03T17:34:49.137Z,31.98
2022-08-03T17:37:22.095Z,32.14
2022-08-03T17:40:03.937Z,31.65
2022-08-03T17:42:33.029Z,33.57
2022-08-03T17:45:02.267Z,35.15
2022-08-03T17:47:41.241Z,34.47
2022-08-03T17:50:23.439Z,35.28
2022-08-03T17:53:07.236Z,35.94
2022-08-03T17:55:55.385Z,36.80
2022-08-03T17:58:42.172Z,36.55
2022-08-03T18:02:00.501Z,36.27
2022-08-03T18:04:32.977Z,36.85
2022-08-03T18:07:11.694Z,37.48
2022-08-03T18:10:06.010Z,37.42
2022-08-03T18:12:28.893Z,38.11
2022-08-03T18:15:08.718Z,38.22
2022-08-03T18:17:55.129Z,38.41
2022-08-03T18:20:34.627Z,38.82
2022-08-03T18:23:09.256Z,39.21
2022-08-03T18:25:45.368Z,38.90
2022-08-03T18:28:18.930Z,39.75
2022-08-03T18:30:55.314Z,39.87
2022-08-03T18:34:19.721Z,39.09
2022-08-03T18:36:21.701Z,39.74
2022-08-03T18:38:57.244Z,40.37
2022-08-03T18:41:33.494Z,40.60
2022-08-03T18:44:08.323Z,40.79
2022-08-03T18:47:16.352Z,40.63
2022-08-03T18:50:04.973Z,40.85
2022-08-03T18:52:45.915Z,40.91
2022-08-03T18:55:33.230Z,40.91
2022-08-03T18:58:17.586Z,40.61
2022-08-03T19:00:58.415Z,41.56
2022-08-03T19:03:43.242Z,41.05
2022-08-03T19:06:19.802Z,41.93
2022-08-03T19:09:00.325Z,41.88
2022-08-03T19:12:13.154Z,41.76
2022-08-03T19:14:45.676Z,42.10
2022-08-03T19:17:13.999Z,42.51
2022-08-03T19:19:45.268Z,43.47
2022-08-03T19:22:15.881Z,42.79
2022-08-03T19:24:45.752Z,42.48
2022-08-03T19:27:13.015Z,42.92
2022-08-03T19:30:00.130Z,42.89
2022-08-03T19:32:32.905Z,43.21
2022-08-03T19:35:01.497Z,43.34
2022-08-03T19:37:38.422Z,43.19
2022-08-03T19:40:10.758Z,42.94
2022-08-03T19:42:42.494Z,43.81
2022-08-03T19:45:14.112Z,43.88
2022-08-03T19:47:56.383Z,43.73
2022-08-03T19:50:25.013Z,43.40
2022-08-03T19:52:52.571Z,43.52
2022-08-03T19:55:19.594Z,43.94
2022-08-03T19:57:49.068Z,44.22
2022-08-03T20:00:19.631Z,44.16
2022-08-03T20:02:47.199Z,44.54
2022-08-03T20:05:17.576Z,45.01
2022-08-03T20:07:47.834Z,44.84
2022-08-03T20:10:17.216Z,44.97
2022-08-03T20:12:44.308Z,45.31
2022-08-03T20:15:13.241Z,45.15
2022-08-03T20:17:54.570Z,45.19
2022-08-03T20:20:28.126Z,45.18
2022-08-03T20:22:58.065Z,45.37
2022-08-03T20:25:37.540Z,46.19
2022-08-03T20:28:14.193Z,45.27
2022-08-03T20:30:43.377Z,45.44
2022-08-03T20:33:10.083Z,45.40
2022-08-03T20:35:36.805Z,45.60
2022-08-03T20:38:03.361Z,45.92
2022-08-03T20:40:29.886Z,45.73
2022-08-03T20:42:56.421Z,45.84
2022-08-03T20:46:00.052Z,45.83
2022-08-03T20:48:11.987Z,46.00
2022-08-03T20:50:43.576Z,45.95
2022-08-03T20:53:13.241Z,46.29
2022-08-03T20:55:47.584Z,46.81
2022-08-03T20:58:26.882Z,46.38
2022-08-03T21:00:55.655Z,46.97
2022-08-03T21:03:22.197Z,47.04
2022-08-03T21:05:53.639Z,47.03
2022-08-03T21:08:22.483Z,47.32
2022-08-03T21:10:52.398Z,47.82
2022-08-03T21:13:38.465Z,47.21
2022-08-03T21:16:14.165Z,48.03
2022-08-03T21:18:51.259Z,47.93
2022-08-03T21:21:20.409Z,48.72
2022-08-03T21:23:53.136Z,48.37
2022-08-03T21:26:23.017Z,48.43
2022-08-03T21:28:51.521Z,48.45
2022-08-03T21:31:25.213Z,48.61
2022-08-03T21:33:59.414Z,48.72
2022-08-03T21:36:27.675Z,48.77
2022-08-03T21:38:57.305Z,48.92
2022-08-03T21:41:26.419Z,48.88
2022-08-03T21:43:52.932Z,48.91
2022-08-03T21:46:20.247Z,49.30
2022-08-03T21:48:50.251Z,49.22
2022-08-03T21:51:19.257Z,49.17
2022-08-03T21:54:03.041Z,49.36
2022-08-03T21:56:41.443Z,49.32
2022-08-03T21:59:15.335Z,49.82
2022-08-03T22:01:42.979Z,49.53
2022-08-03T22:04:11.921Z,49.54
2022-08-03T22:06:57.685Z,49.71
2022-08-03T22:09:24.248Z,49.47
2022-08-03T22:11:53.997Z,49.43
2022-08-03T22:14:20.678Z,49.87
2022-08-03T22:16:49.028Z,49.57
2022-08-03T22:19:15.568Z,49.68
2022-08-03T22:21:46.786Z,50.06
2022-08-03T22:24:15.269Z,50.17
2022-08-03T22:27:02.959Z,49.90
2022-08-03T22:29:30.731Z,50.10
2022-08-03T22:31:59.360Z,50.20
2022-08-03T22:34:27.440Z,50.46
2022-08-03T22:37:01.389Z,50.68
2022-08-03T22:39:29.775Z,50.63
2022-08-03T22:41:58.874Z,50.35
2022-08-03T22:44:26.851Z,50.52
2022-08-03T22:46:53.659Z,50.65
2022-08-03T22:49:20.766Z,51.41
2022-08-03T22:51:48.271Z,50.97
2022-08-03T22:54:16.508Z,51.40
2022-08-03T22:56:47.664Z,51.20
2022-08-03T22:59:40.633Z,51.30
2022-08-03T23:02:20.462Z,51.74
2022-08-03T23:04:56.445Z,51.76
2022-08-03T23:07:35.457Z,51.84
2022-08-03T23:10:05.437Z,51.80
2022-08-03T23:12:35.064Z,51.94
2022-08-03T23:15:04.740Z,52.74
2022-08-03T23:17:32.427Z,52.46
2022-08-03T23:20:09.204Z,52.45
2022-08-03T23:22:39.060Z,53.47
2022-08-03T23:25:10.673Z,53.75
2022-08-03T23:27:42.009Z,54.08
2022-08-03T23:30:10.049Z,54.21
2022-08-03T23:32:37.189Z,53.72
2022-08-03T23:36:29.421Z,53.31
2022-08-03T23:38:22.397Z,53.87
2022-08-03T23:40:51.244Z,54.00
2022-08-03T23:43:51.236Z,53.70
2022-08-03T23:46:07.753Z,52.96
2022-08-03T23:48:34.731Z,53.92
2022-08-03T23:51:13.140Z,53.29
2022-08-03T23:53:45.375Z,53.45
2022-08-03T23:56:23.760Z,53.83
2022-08-03T23:58:52.839Z,54.04
